createdAt,value
2017-12-23T00:08:53.702Z,-1.99
2017-12-23T00:18:31.019Z,-2.09
2017-12-23T00:28:07.558Z,-1.99
2017-12-23T00:37:43.508Z,-2.19
2017-12-23T00:47:19.641Z,-2.29
2017-12-23T00:56:56.265Z,-2.09
2017-12-23T01:06:32.796Z,-2.09
2017-12-23T01:16:08.664Z,-2.19
2017-12-23T01:25:45.978Z,-2.29
2017-12-23T01:35:21.707Z,-2.39
2017-12-23T01:44:59.283Z,-2.38
2017-12-23T01:54:33.891Z,-2.19
2017-12-23T02:04:16.136Z,-2.09
2017-12-23T02:13:52.791Z,-2.09
2017-12-23T02:23:28.945Z,-2.29
2017-12-23T02:33:09.349Z,-2.19
2017-12-23T02:42:39.408Z,-2.48
2017-12-23T02:52:14.023Z,-2.58
2017-12-23T03:01:55.689Z,-2.58
2017-12-23T03:11:32.514Z,-2.48
2017-12-23T03:21:08.893Z,-2.48
2017-12-23T03:30:45.252Z,-2.48
2017-12-23T03:40:22.295Z,-2.48
2017-12-23T03:49:58.876Z,-2.48
2017-12-23T03:59:35.320Z,-2.38
2017-12-23T04:09:11.196Z,-2.78
2017-12-23T04:18:47.565Z,-2.87
2017-12-23T04:28:24.328Z,-2.77
2017-12-23T04:38:00.548Z,-2.97
2017-12-23T04:47:36.986Z,-2.97
2017-12-23T04:57:13.294Z,-2.97
2017-12-23T05:06:49.833Z,-3.17
2017-12-23T05:16:26.249Z,-3.07
2017-12-23T05:26:03.269Z,-2.97
2017-12-23T05:35:39.970Z,-3.17
2017-12-23T05:45:16.169Z,-3.17
2017-12-23T05:54:52.586Z,-3.07
2017-12-23T06:04:29.563Z,-2.87
2017-12-23T06:14:04.926Z,-2.58
2017-12-23T06:23:47.712Z,-2.38
2017-12-23T06:33:23.617Z,-2.19
2017-12-23T06:43:01.300Z,-2.29
2017-12-23T06:52:37.470Z,-2.48
2017-12-23T07:02:14.057Z,-2.48
2017-12-23T07:11:50.162Z,-2.58
2017-12-23T07:21:24.827Z,-2.48
2017-12-23T07:31:06.595Z,-2.29
2017-12-23T07:40:42.955Z,-1.99
2017-12-23T07:50:20.896Z,-1.60
2017-12-23T07:59:57.328Z,-1.21
2017-12-23T08:09:34.736Z,-0.92
2017-12-23T08:19:10.666Z,-0.92
2017-12-23T08:28:47.112Z,-0.53
2017-12-23T08:38:24.342Z,-0.04
2017-12-23T08:48:01.093Z,0.16
2017-12-23T08:57:37.422Z,0.26
2017-12-23T09:07:14.425Z,0.75
2017-12-23T09:16:49.722Z,1.33
2017-12-23T09:26:32.690Z,1.92
2017-12-23T09:36:10.174Z,2.41
2017-12-23T09:45:46.479Z,2.70
2017-12-23T09:55:24.608Z,3.19
2017-12-23T10:05:00.895Z,3.58
2017-12-23T10:14:38.056Z,3.88
2017-12-23T10:24:14.852Z,4.17
2017-12-23T10:33:51.477Z,4.46
2017-12-23T10:43:28.958Z,4.76
2017-12-23T10:53:07.416Z,5.34
2017-12-23T11:02:44.896Z,8.86
2017-12-23T11:12:23.268Z,10.92
2017-12-23T11:21:58.924Z,9.55
2017-12-23T11:31:35.605Z,7.40
2017-12-23T11:41:11.752Z,6.71
2017-12-23T11:50:47.733Z,8.18
2017-12-23T12:00:24.704Z,7.98
2017-12-23T12:10:01.198Z,9.16
2017-12-23T12:19:38.536Z,9.35
2017-12-23T12:29:14.747Z,9.55
2017-12-23T12:38:52.382Z,9.84
2017-12-23T12:48:29.024Z,10.82
2017-12-23T12:58:05.109Z,10.62
2017-12-23T13:07:40.816Z,8.57
2017-12-23T13:17:17.385Z,8.77
2017-12-23T13:26:53.482Z,8.08
2017-12-23T13:36:29.169Z,7.79
2017-12-23T13:46:04.691Z,7.88
2017-12-23T13:55:42.605Z,8.37
2017-12-23T14:05:19.556Z,9.84
2017-12-23T14:14:56.780Z,9.84
2017-12-23T14:24:31.742Z,8.28
2017-12-23T14:34:07.735Z,8.18
2017-12-23T14:43:42.913Z,7.89
2017-12-23T14:53:19.226Z,8.67
2017-12-23T15:02:57.183Z,7.69
2017-12-23T15:12:31.959Z,7.69
2017-12-23T15:22:08.186Z,7.10
2017-12-23T15:31:44.131Z,6.32
2017-12-23T15:41:18.390Z,5.44
2017-12-23T15:50:54.326Z,5.05
2017-12-23T16:00:30.670Z,6.42
2017-12-23T16:10:06.531Z,6.22
2017-12-23T16:19:44.360Z,5.63
2017-12-23T16:29:24.084Z,5.44
2017-12-23T16:38:55.680Z,8.37
2017-12-23T16:48:34.597Z,8.57
2017-12-23T16:58:12.474Z,8.86
2017-12-23T17:07:50.065Z,8.77
2017-12-23T17:17:25.784Z,8.77
2017-12-23T17:27:02.926Z,8.67
2017-12-23T17:36:40.413Z,8.37
2017-12-23T17:46:20.358Z,8.37
2017-12-23T17:55:50.413Z,8.47
2017-12-23T18:05:26.969Z,8.37
2017-12-23T18:15:07.497Z,8.57
2017-12-23T18:24:38.295Z,8.37
2017-12-23T18:34:18.177Z,8.28
2017-12-23T18:43:48.703Z,8.57
2017-12-23T18:53:30.338Z,8.67
2017-12-23T19:03:00.395Z,8.96
2017-12-23T19:12:36.739Z,8.67
2017-12-23T19:22:13.154Z,8.77
2017-12-23T19:31:49.277Z,9.06
2017-12-23T19:41:30.804Z,9.06
2017-12-23T19:51:01.051Z,9.06
2017-12-23T20:00:37.785Z,9.25
2017-12-23T20:10:17.884Z,9.45
2017-12-23T20:19:52.597Z,9.65
2017-12-23T20:29:27.380Z,9.35
2017-12-23T20:39:01.740Z,9.45
2017-12-23T20:48:35.786Z,9.55
2017-12-23T20:58:10.287Z,9.55
2017-12-23T21:07:44.238Z,9.65
2017-12-23T21:17:17.894Z,9.74
2017-12-23T21:26:51.480Z,9.55
2017-12-23T21:36:25.916Z,9.84
2017-12-23T21:46:09.048Z,9.74
2017-12-23T21:55:44.173Z,9.65
2017-12-23T22:05:18.281Z,9.94
2017-12-23T22:14:47.947Z,9.65
2017-12-23T22:24:31.750Z,9.45
2017-12-23T22:34:02.551Z,8.96
2017-12-23T22:43:36.250Z,8.37
2017-12-23T22:53:10.203Z,8.28
2017-12-23T23:02:42.694Z,7.10
2017-12-23T23:12:15.744Z,6.61
2017-12-23T23:21:48.695Z,6.13
2017-12-23T23:31:29.276Z,5.73
2017-12-23T23:41:01.559Z,5.73
2017-12-23T23:50:35.939Z,5.73
